Time;durP1;ratioP1;P1;durP2;ratioP2;P2;SDS_P1;SDS_P2;PMS_P1;PMS_P2;Temp;Humidity;BMP_temperature;BMP_pressure;BME280_temperature;BME280_humidity;BME280_pressure;Samples;Min_cycle;Max_cycle;Signal;HPM_P1;HPM_P2
2022/09/29 00:01:05;;;;;;;0.50;0.50;;;7.50;99.90;;;;;;5098731;28;20305;-77
2022/09/29 00:03:32;;;;;;;0.55;0.50;;;7.50;99.90;;;;;;5099221;28;20201;-77
2022/09/29 00:05:58;;;;;;;0.70;0.70;;;7.50;99.90;;;;;;5099766;28;20306;-77
2022/09/29 00:08:28;;;;;;;0.50;0.40;;;7.40;99.90;;;;;;5100342;28;20224;-77
2022/09/29 00:10:56;;;;;;;1.13;1.13;;;7.40;99.90;;;;;;5100309;28;20196;-77
2022/09/29 00:13:23;;;;;;;0.50;0.40;;;7.40;99.90;;;;;;5100072;28;20204;-77
2022/09/29 00:15:58;;;;;;;0.50;0.40;;;7.40;99.90;;;;;;5100143;28;20755;-77
2022/09/29 00:18:27;;;;;;;1.50;1.40;;;7.30;99.90;;;;;;5099252;28;20262;-78
2022/09/29 00:21:02;;;;;;;0.50;0.40;;;7.50;99.90;;;;;;5099135;28;20190;-77
2022/09/29 00:23:30;;;;;;;1.77;1.58;;;7.40;99.90;;;;;;5099471;28;20195;-78
2022/09/29 00:26:05;;;;;;;1.88;1.77;;;7.40;99.90;;;;;;5098955;28;20216;-77
2022/09/29 00:28:33;;;;;;;2.25;1.30;;;7.40;99.90;;;;;;5099570;28;20676;-78
2022/09/29 00:31:01;;;;;;;0.50;0.50;;;7.40;99.90;;;;;;5100138;28;20639;-77
2022/09/29 00:33:31;;;;;;;0.65;0.63;;;7.40;99.90;;;;;;5100514;28;20227;-77
2022/09/29 00:36:00;;;;;;;0.50;0.40;;;7.40;99.90;;;;;;5099078;28;20559;-77
2022/09/29 00:38:27;;;;;;;0.50;0.40;;;7.40;99.90;;;;;;5099483;28;20226;-78
2022/09/29 00:40:54;;;;;;;0.50;0.40;;;7.40;99.90;;;;;;5098741;28;20558;-77
2022/09/29 00:43:24;;;;;;;0.55;0.55;;;7.40;99.90;;;;;;5099258;28;20714;-77
2022/09/29 00:45:54;;;;;;;1.90;1.25;;;7.40;99.90;;;;;;5097978;28;20216;-76
2022/09/29 00:48:29;;;;;;;0.50;0.40;;;7.40;99.90;;;;;;5098529;28;20292;-77
2022/09/29 00:50:57;;;;;;;0.50;0.50;;;7.40;99.90;;;;;;5098701;28;20197;-77
2022/09/29 00:53:26;;;;;;;0.50;0.40;;;7.30;99.90;;;;;;5099581;28;20290;-78
2022/09/29 00:55:56;;;;;;;1.55;1.45;;;7.30;99.90;;;;;;5097104;28;20220;-77
2022/09/29 00:58:30;;;;;;;0.50;0.40;;;7.30;99.90;;;;;;5093941;28;20193;-77
2022/09/29 01:00:58;;;;;;;0.50;0.40;;;7.30;99.90;;;;;;5093362;28;20188;-77
2022/09/29 01:03:29;;;;;;;0.50;0.40;;;7.30;99.90;;;;;;5093236;28;20197;-77
2022/09/29 01:06:00;;;;;;;4.72;1.75;;;7.30;99.90;;;;;;5093584;28;20214;-77
2022/09/29 01:08:33;;;;;;;0.50;0.40;;;7.30;99.90;;;;;;5094196;28;20175;-77
2022/09/29 01:11:01;;;;;;;1.83;1.73;;;7.30;99.90;;;;;;5094899;28;20217;-76
2022/09/29 01:13:29;;;;;;;0.50;0.40;;;7.30;99.90;;;;;;5095709;28;20200;-77
2022/09/29 01:15:56;;;;;;;0.50;0.40;;;7.20;99.90;;;;;;5097892;28;20211;-77
2022/09/29 01:18:23;;;;;;;0.50;0.40;;;7.20;99.90;;;;;;5095220;28;20201;-78
2022/09/29 01:20:57;;;;;;;0.50;0.40;;;7.20;99.90;;;;;;5094923;28;20194;-77
2022/09/29 01:23:54;;;;;;;1.88;1.77;;;7.30;99.90;;;;;;5097762;28;20194;-77
2022/09/29 01:26:50;;;;;;;0.50;0.40;;;7.30;99.90;;;;;;5097379;28;20178;-77
2022/09/29 01:29:49;;;;;;;0.50;0.50;;;7.20;99.90;;;;;;5093193;28;20288;-77
2022/09/29 01:32:24;;;;;;;0.50;0.40;;;7.10;99.90;;;;;;5093075;28;20189;-77
2022/09/29 01:35:00;;;;;;;0.50;0.40;;;7.10;99.90;;;;;;5092806;28;20237;-77
2022/09/29 01:37:38;;;;;;;0.50;0.40;;;7.00;99.90;;;;;;5093342;28;20183;-77
2022/09/29 01:40:12;;;;;;;2.47;2.35;;;7.10;99.90;;;;;;5092826;28;20199;-77
2022/09/29 01:42:48;;;;;;;1.13;1.02;;;7.10;99.90;;;;;;5092800;28;20200;-77
2022/09/29 01:45:21;;;;;;;0.70;0.70;;;7.10;99.90;;;;;;5109651;22;20333;-75
2022/09/29 01:47:53;;;;;;;0.50;0.40;;;7.20;99.90;;;;;;5105766;28;20199;-73
2022/09/29 01:50:23;;;;;;;0.50;0.40;;;7.20;99.90;;;;;;5104397;28;20187;-74
2022/09/29 01:52:56;;;;;;;0.50;0.40;;;7.20;99.90;;;;;;5112824;28;20282;-76
2022/09/29 01:55:27;;;;;;;0.80;0.80;;;7.30;99.90;;;;;;5098422;28;20219;-77
2022/09/29 01:57:57;;;;;;;0.70;0.60;;;7.20;99.90;;;;;;5092889;28;20182;-76
2022/09/29 02:00:30;;;;;;;0.60;0.60;;;7.20;99.90;;;;;;5091961;28;20203;-76
2022/09/29 02:03:03;;;;;;;2.25;1.50;;;7.30;99.90;;;;;;5092163;28;20718;-75
2022/09/29 02:05:32;;;;;;;1.05;1.05;;;7.20;99.90;;;;;;5091777;28;20219;-76
2022/09/29 02:08:06;;;;;;;0.50;0.50;;;7.30;99.90;;;;;;5092296;28;20209;-76
2022/09/29 02:10:37;;;;;;;1.23;1.13;;;7.30;99.90;;;;;;5091722;28;20698;-76
2022/09/29 02:13:08;;;;;;;0.50;0.40;;;7.20;99.90;;;;;;5091283;28;20198;-77
2022/09/29 02:15:39;;;;;;;1.40;1.40;;;7.20;99.90;;;;;;5091797;28;20217;-76
2022/09/29 02:18:13;;;;;;;0.50;0.40;;;7.20;99.90;;;;;;5091920;28;20201;-76
2022/09/29 02:20:40;;;;;;;1.33;1.23;;;7.20;99.90;;;;;;5092306;28;20194;-76
2022/09/29 02:23:07;;;;;;;1.67;1.50;;;7.10;99.90;;;;;;5091827;28;20304;-76
2022/09/29 02:25:37;;;;;;;0.50;0.40;;;7.10;99.90;;;;;;5091802;28;20648;-76
2022/09/29 02:28:05;;;;;;;0.50;0.40;;;7.00;99.90;;;;;;5091612;28;20239;-76
2022/09/29 02:30:33;;;;;;;0.50;0.40;;;7.00;99.90;;;;;;5091969;28;20232;-76
2022/09/29 02:33:00;;;;;;;8.32;7.70;;;7.00;99.90;;;;;;5092207;28;20280;-76
2022/09/29 02:35:37;;;;;;;0.50;0.40;;;7.00;99.90;;;;;;5091500;28;20702;-76
2022/09/29 02:38:10;;;;;;;0.50;0.40;;;7.00;99.90;;;;;;5091775;28;20204;-76
2022/09/29 02:40:45;;;;;;;1.25;1.15;;;7.10;99.90;;;;;;5091442;28;20175;-76
2022/09/29 02:43:30;;;;;;;1.00;1.00;;;7.10;99.90;;;;;;5091799;28;20214;-76
2022/09/29 02:46:10;;;;;;;1.33;1.23;;;7.10;99.90;;;;;;5091219;28;20223;-76
2022/09/29 02:49:05;;;;;;;0.80;0.80;;;7.10;99.90;;;;;;5091748;28;20200;-76
2022/09/29 02:51:37;;;;;;;0.60;0.60;;;7.10;99.90;;;;;;5084777;28;20200;-76
2022/09/29 02:54:19;;;;;;;1.95;1.85;;;7.10;99.90;;;;;;5091118;28;20547;-76
2022/09/29 02:56:54;;;;;;;0.50;0.47;;;7.10;99.90;;;;;;5091783;28;20251;-76
2022/09/29 02:59:26;;;;;;;0.50;0.40;;;7.10;99.90;;;;;;5091911;28;20178;-76
2022/09/29 03:01:55;;;;;;;1.50;1.40;;;7.10;99.90;;;;;;5091068;28;20219;-76
2022/09/29 03:04:25;;;;;;;1.45;1.35;;;7.10;99.90;;;;;;5091447;28;20283;-76
2022/09/29 03:06:53;;;;;;;0.50;0.40;;;7.10;99.90;;;;;;5091436;28;20625;-76
2022/09/29 03:09:20;;;;;;;1.15;1.05;;;7.10;99.90;;;;;;5091307;28;20198;-76
2022/09/29 03:11:47;;;;;;;1.75;1.52;;;7.10;99.90;;;;;;5091039;28;20595;-76
2022/09/29 03:14:14;;;;;;;0.50;0.40;;;7.10;99.90;;;;;;5091200;28;20194;-76
2022/09/29 03:16:41;;;;;;;0.50;0.40;;;7.10;99.90;;;;;;5091194;28;20287;-76
2022/09/29 03:19:08;;;;;;;0.50;0.45;;;7.00;99.90;;;;;;5091364;28;20289;-76
2022/09/29 03:21:35;;;;;;;0.50;0.40;;;7.00;99.90;;;;;;5091014;28;20294;-76
2022/09/29 03:24:04;;;;;;;0.55;0.55;;;7.00;99.90;;;;;;5092809;28;20200;-75
2022/09/29 03:26:32;;;;;;;0.50;0.40;;;7.00;99.90;;;;;;5095644;28;20242;-76
2022/09/29 03:28:59;;;;;;;6.80;1.05;;;6.90;99.90;;;;;;5095496;28;20662;-76
2022/09/29 03:31:26;;;;;;;0.50;0.40;;;6.90;99.90;;;;;;5095179;28;20204;-76
2022/09/29 03:33:53;;;;;;;0.50;0.40;;;6.90;99.90;;;;;;5095342;28;20220;-75
2022/09/29 03:36:19;;;;;;;1.05;1.05;;;6.90;99.90;;;;;;5095245;28;20210;-76
2022/09/29 03:38:46;;;;;;;0.50;0.40;;;6.90;99.90;;;;;;5095318;28;20225;-76
2022/09/29 03:41:14;;;;;;;0.50;0.40;;;6.90;99.90;;;;;;5095078;28;20286;-76
2022/09/29 03:43:41;;;;;;;0.85;0.85;;;6.90;99.90;;;;;;5095029;28;20214;-76
2022/09/29 03:46:08;;;;;;;0.50;0.50;;;6.90;99.90;;;;;;5094230;28;20219;-76
2022/09/29 03:48:35;;;;;;;0.50;0.50;;;6.90;99.90;;;;;;5095362;28;20674;-75
2022/09/29 03:51:02;;;;;;;0.50;0.40;;;6.90;99.90;;;;;;5094687;28;20193;-76
2022/09/29 03:53:29;;;;;;;0.50;0.50;;;6.80;99.90;;;;;;5095053;28;20562;-75
2022/09/29 03:55:56;;;;;;;0.50;0.50;;;6.90;99.90;;;;;;5094589;28;20563;-76
2022/09/29 03:58:25;;;;;;;2.22;2.13;;;6.90;99.90;;;;;;5094671;28;20190;-76
2022/09/29 04:00:52;;;;;;;0.57;0.55;;;6.90;99.90;;;;;;5094652;28;20202;-76
2022/09/29 04:03:19;;;;;;;2.63;0.80;;;7.00;99.90;;;;;;5094938;28;20219;-77
2022/09/29 04:05:46;;;;;;;0.80;0.80;;;7.00;99.90;;;;;;5094411;28;20219;-76
2022/09/29 04:08:14;;;;;;;6.18;0.73;;;7.10;99.90;;;;;;5094533;28;20234;-76
2022/09/29 04:10:41;;;;;;;0.70;0.70;;;7.00;99.90;;;;;;5094100;28;20668;-76
2022/09/29 04:13:08;;;;;;;0.80;0.80;;;7.00;99.90;;;;;;5094591;28;20196;-76
2022/09/29 04:15:37;;;;;;;1.15;1.13;;;7.00;99.90;;;;;;5094673;28;20222;-76
2022/09/29 04:18:04;;;;;;;2.17;1.50;;;7.10;99.90;;;;;;5094478;28;20211;-75
2022/09/29 04:20:31;;;;;;;0.50;0.40;;;7.10;99.90;;;;;;5094652;28;20625;-75
2022/09/29 04:22:59;;;;;;;2.10;1.98;;;7.00;99.90;;;;;;5094212;28;20213;-75
2022/09/29 04:25:26;;;;;;;0.77;0.77;;;7.00;99.90;;;;;;5094092;28;20554;-75
2022/09/29 04:27:53;;;;;;;0.50;0.50;;;7.00;99.90;;;;;;5094130;28;20192;-75
2022/09/29 04:30:20;;;;;;;2.45;0.73;;;7.00;99.90;;;;;;5094399;28;20202;-75
2022/09/29 04:32:48;;;;;;;1.38;1.30;;;7.00;99.90;;;;;;5094063;28;20199;-75
2022/09/29 04:35:15;;;;;;;0.50;0.50;;;6.90;99.90;;;;;;5092860;28;20249;-75
2022/09/29 04:37:42;;;;;;;0.80;0.77;;;6.90;99.90;;;;;;5093782;28;20624;-75
2022/09/29 04:40:10;;;;;;;0.50;0.50;;;6.90;99.90;;;;;;5094398;28;20300;-75
2022/09/29 04:42:37;;;;;;;0.63;0.63;;;6.90;99.90;;;;;;5093480;28;20219;-75
2022/09/29 04:45:05;;;;;;;6.53;2.92;;;6.90;99.90;;;;;;5093523;28;20200;-75
2022/09/29 04:47:32;;;;;;;2.05;1.95;;;7.00;99.90;;;;;;5093547;28;20180;-75
2022/09/29 04:50:00;;;;;;;8.48;2.22;;;7.00;99.90;;;;;;5094028;28;20205;-75
2022/09/29 04:52:27;;;;;;;0.50;0.40;;;7.00;99.90;;;;;;5093709;28;20199;-75
2022/09/29 04:54:54;;;;;;;0.70;0.70;;;7.00;99.90;;;;;;5093640;28;20726;-74
2022/09/29 04:57:20;;;;;;;1.13;1.13;;;7.00;99.90;;;;;;5093733;28;20199;-75
2022/09/29 04:59:50;;;;;;;1.63;1.52;;;7.00;99.90;;;;;;5093612;28;20247;-75
2022/09/29 05:02:17;;;;;;;1.58;1.48;;;6.90;99.90;;;;;;5093206;28;20240;-75
2022/09/29 05:04:46;;;;;;;1.40;1.30;;;7.00;99.90;;;;;;5093102;28;20208;-75
2022/09/29 05:07:15;;;;;;;2.65;1.40;;;7.00;99.90;;;;;;5093446;28;20263;-75
2022/09/29 05:09:41;;;;;;;1.15;1.15;;;7.00;99.90;;;;;;5093055;28;20200;-75
2022/09/29 05:12:08;;;;;;;1.30;1.20;;;7.10;99.90;;;;;;5092969;28;20199;-75
2022/09/29 05:14:35;;;;;;;9.30;5.35;;;7.00;99.90;;;;;;5092629;28;20191;-75
2022/09/29 05:17:02;;;;;;;0.55;0.55;;;7.00;99.90;;;;;;5093424;28;20216;-75
2022/09/29 05:19:30;;;;;;;1.23;1.13;;;6.90;99.90;;;;;;5093048;28;20189;-74
2022/09/29 05:21:57;;;;;;;0.80;0.77;;;6.90;99.90;;;;;;5092825;28;20206;-74
2022/09/29 05:24:26;;;;;;;0.50;0.50;;;6.90;99.90;;;;;;5092325;28;20209;-75
2022/09/29 05:26:53;;;;;;;0.50;0.40;;;6.90;99.90;;;;;;5093168;28;20215;-75
2022/09/29 05:29:20;;;;;;;1.48;1.38;;;6.90;99.90;;;;;;5092764;28;20202;-75
2022/09/29 05:31:47;;;;;;;1.08;1.08;;;6.90;99.90;;;;;;5092950;28;20205;-74
2022/09/29 05:34:13;;;;;;;0.80;0.80;;;6.90;99.90;;;;;;5092484;28;20624;-75
2022/09/29 05:36:40;;;;;;;3.75;3.40;;;6.90;99.90;;;;;;5092995;28;20217;-75
2022/09/29 05:39:07;;;;;;;0.70;0.70;;;7.00;99.90;;;;;;5092722;28;20207;-75
2022/09/29 05:41:35;;;;;;;0.50;0.40;;;7.00;99.90;;;;;;5092808;28;20207;-75
2022/09/29 05:44:02;;;;;;;0.50;0.50;;;6.90;99.90;;;;;;5091980;28;20211;-75
2022/09/29 05:46:29;;;;;;;1.40;1.25;;;7.10;99.90;;;;;;5092449;28;20724;-74
2022/09/29 05:48:57;;;;;;;0.82;0.82;;;7.00;99.90;;;;;;5092577;28;20209;-75
2022/09/29 05:51:25;;;;;;;0.50;0.50;;;7.00;99.90;;;;;;5092291;28;20200;-74
2022/09/29 05:53:53;;;;;;;0.50;0.50;;;7.00;99.90;;;;;;5092203;28;20191;-74
2022/09/29 05:56:22;;;;;;;0.57;0.57;;;7.00;99.90;;;;;;5092353;28;20213;-76
2022/09/29 05:58:51;;;;;;;7.00;2.90;;;7.10;99.90;;;;;;5093147;28;20199;-74
2022/09/29 06:01:20;;;;;;;3.47;1.73;;;7.20;99.90;;;;;;5092557;28;20200;-75
2022/09/29 06:03:46;;;;;;;0.70;0.70;;;7.20;99.90;;;;;;5091983;28;20226;-74
2022/09/29 06:06:15;;;;;;;1.85;1.75;;;7.30;99.90;;;;;;5091784;28;20250;-75
2022/09/29 06:08:43;;;;;;;6.53;4.65;;;7.20;99.90;;;;;;5092127;28;20613;-75
2022/09/29 06:11:11;;;;;;;0.80;0.80;;;7.30;99.90;;;;;;5091569;28;20200;-74
2022/09/29 06:13:39;;;;;;;0.52;0.50;;;7.40;99.90;;;;;;5091996;28;20272;-75
2022/09/29 06:16:08;;;;;;;0.73;0.73;;;7.40;99.90;;;;;;5091529;28;20216;-75
2022/09/29 06:18:35;;;;;;;1.45;1.45;;;7.50;99.90;;;;;;5091815;28;20199;-75
2022/09/29 06:21:03;;;;;;;1.25;1.10;;;7.50;99.90;;;;;;5091698;28;20288;-75
2022/09/29 06:23:30;;;;;;;1.17;1.08;;;7.50;99.90;;;;;;5091892;28;20217;-74
2022/09/29 06:25:58;;;;;;;3.08;1.50;;;7.60;99.90;;;;;;5091086;28;20218;-75
2022/09/29 06:28:25;;;;;;;0.50;0.40;;;7.50;99.90;;;;;;5091729;28;20200;-75
2022/09/29 06:30:52;;;;;;;0.60;0.60;;;7.60;99.90;;;;;;5091840;28;20628;-75
2022/09/29 06:33:20;;;;;;;0.80;0.75;;;7.60;99.90;;;;;;5091842;28;20193;-75
2022/09/29 06:38:32;;;;;;;0.82;0.82;;;7.90;99.90;;;;;;5091686;28;20188;-75
2022/09/29 06:41:00;;;;;;;0.50;0.40;;;8.00;99.90;;;;;;5091879;28;20201;-75
2022/09/29 06:43:27;;;;;;;0.50;0.40;;;8.20;99.90;;;;;;5091805;28;20213;-75
2022/09/29 06:45:53;;;;;;;4.45;2.30;;;8.40;99.90;;;;;;5090646;28;20313;-75
2022/09/29 06:48:22;;;;;;;0.50;0.40;;;8.50;99.90;;;;;;5091391;28;20284;-75
2022/09/29 06:50:48;;;;;;;0.50;0.50;;;8.80;99.90;;;;;;5091670;28;20238;-74
2022/09/29 06:53:15;;;;;;;0.50;0.40;;;9.00;99.90;;;;;;5091361;28;20192;-74
2022/09/29 06:55:42;;;;;;;2.10;1.90;;;9.10;99.90;;;;;;5090924;28;20219;-72
2022/09/29 06:58:09;;;;;;;2.10;1.77;;;9.30;99.90;;;;;;5090723;28;20302;-75
2022/09/29 07:00:38;;;;;;;0.50;0.40;;;9.50;99.90;;;;;;5091169;28;20198;-75
2022/09/29 07:03:04;;;;;;;0.60;0.55;;;9.60;99.90;;;;;;5091366;28;20216;-74
2022/09/29 07:05:34;;;;;;;0.57;0.57;;;9.50;99.90;;;;;;5091279;28;20258;-75
2022/09/29 07:08:02;;;;;;;0.60;0.57;;;9.60;99.90;;;;;;5091379;28;20192;-75
2022/09/29 07:10:29;;;;;;;2.17;2.08;;;9.70;99.90;;;;;;5091182;28;20673;-75
2022/09/29 07:12:56;;;;;;;3.47;1.48;;;9.70;99.90;;;;;;5090523;28;20596;-75
2022/09/29 07:15:30;;;;;;;1.80;1.70;;;9.80;99.90;;;;;;5091093;28;20494;-75
2022/09/29 07:17:57;;;;;;;0.50;0.40;;;9.90;99.90;;;;;;5091578;28;20550;-74
2022/09/29 07:20:25;;;;;;;2.00;1.85;;;9.90;99.90;;;;;;5091396;28;20279;-74
2022/09/29 07:22:53;;;;;;;1.33;1.23;;;9.80;99.90;;;;;;5090414;28;20360;-75
2022/09/29 07:25:20;;;;;;;0.70;0.60;;;9.80;99.90;;;;;;5090669;28;20235;-75
2022/09/29 07:27:48;;;;;;;0.50;0.40;;;9.80;99.90;;;;;;5091434;28;20543;-75
2022/09/29 07:30:15;;;;;;;4.40;2.15;;;10.30;99.90;;;;;;5091124;28;20193;-74
2022/09/29 07:32:42;;;;;;;0.50;0.40;;;10.70;99.90;;;;;;5091022;28;20658;-74
2022/09/29 07:35:09;;;;;;;1.08;1.08;;;10.90;99.90;;;;;;5090449;28;20343;-75
2022/09/29 07:37:36;;;;;;;1.02;1.02;;;10.90;99.90;;;;;;5090716;28;20193;-75
2022/09/29 07:40:05;;;;;;;1.92;1.83;;;10.90;99.90;;;;;;5090857;28;20284;-75
2022/09/29 07:42:31;;;;;;;0.80;0.80;;;11.10;99.90;;;;;;5091037;28;20199;-75
2022/09/29 07:44:58;;;;;;;1.17;1.08;;;11.70;99.90;;;;;;5090301;28;20224;-74
2022/09/29 07:47:25;;;;;;;0.50;0.40;;;12.50;99.90;;;;;;5092008;28;20201;-75
2022/09/29 07:49:52;;;;;;;0.67;0.67;;;12.80;99.90;;;;;;5090876;28;20194;-75
2022/09/29 07:52:18;;;;;;;0.50;0.40;;;12.90;99.90;;;;;;5090924;28;20445;-75
2022/09/29 07:54:45;;;;;;;0.50;0.50;;;13.20;99.90;;;;;;5090347;28;20522;-75
2022/09/29 07:57:13;;;;;;;1.60;1.50;;;14.20;99.90;;;;;;5090995;28;20463;-75
2022/09/29 07:59:40;;;;;;;0.50;0.40;;;15.50;99.90;;;;;;5090919;28;20533;-75
2022/09/29 08:02:07;;;;;;;0.50;0.40;;;17.10;99.90;;;;;;5090652;28;20450;-73
2022/09/29 08:04:34;;;;;;;0.70;0.50;;;18.90;99.90;;;;;;5090147;28;20478;-75
2022/09/29 08:07:01;;;;;;;0.60;0.53;;;20.60;99.90;;;;;;5090614;28;20462;-75
2022/09/29 08:09:28;;;;;;;0.50;0.30;;;22.10;99.90;;;;;;5090748;28;20471;-73
2022/09/29 08:11:55;;;;;;;0.50;0.40;;;23.40;96.30;;;;;;5092671;28;20442;-74
2022/09/29 08:14:23;;;;;;;0.50;0.30;;;24.60;90.90;;;;;;5094231;28;20849;-75
2022/09/29 08:16:50;;;;;;;0.50;0.30;;;24.60;81.60;;;;;;5094117;28;21011;-74
2022/09/29 08:19:16;;;;;;;1.27;1.17;;;25.70;81.10;;;;;;5094573;28;20530;-74
2022/09/29 08:21:44;;;;;;;0.70;0.70;;;26.50;72.70;;;;;;5094276;28;20845;-73
2022/09/29 08:24:13;;;;;;;0.50;0.30;;;25.70;70.50;;;;;;5093966;28;20561;-74
2022/09/29 08:26:40;;;;;;;0.70;0.70;;;26.10;75.60;;;;;;5093651;28;20720;-74
2022/09/29 08:29:07;;;;;;;0.50;0.40;;;26.00;67.10;;;;;;5093987;28;20443;-74
2022/09/29 08:31:36;;;;;;;0.50;0.30;;;25.70;68.00;;;;;;5093833;28;20447;-74
2022/09/29 08:34:03;;;;;;;0.50;0.33;;;25.90;67.70;;;;;;5094063;28;20493;-74
2022/09/29 08:36:30;;;;;;;0.50;0.30;;;26.50;70.10;;;;;;5093869;28;21037;-74
2022/09/29 08:38:58;;;;;;;0.50;0.30;;;27.30;65.50;;;;;;5093540;28;20475;-73
2022/09/29 08:41:42;;;;;;;0.50;0.33;;;27.90;66.20;;;;;;5093818;28;20805;-74
2022/09/29 08:44:14;;;;;;;0.50;0.30;;;28.10;60.60;;;;;;5093953;28;20471;-74
2022/09/29 08:46:46;;;;;;;0.63;0.63;;;27.30;62.60;;;;;;5093429;28;20467;-74
2022/09/29 08:49:20;;;;;;;0.70;0.70;;;27.70;61.70;;;;;;5093793;28;20445;-73
2022/09/29 08:51:52;;;;;;;0.60;0.40;;;27.30;58.90;;;;;;5093691;28;20506;-73
2022/09/29 08:54:29;;;;;;;1.43;1.33;;;26.40;62.30;;;;;;5092894;28;20932;-73
2022/09/29 08:56:56;;;;;;;0.70;0.70;;;25.90;61.20;;;;;;5093281;28;20545;-74
2022/09/29 08:59:26;;;;;;;0.50;0.33;;;25.50;63.50;;;;;;5093609;28;20435;-74
2022/09/29 09:02:08;;;;;;;0.50;0.30;;;25.80;64.90;;;;;;5093325;28;20435;-74
2022/09/29 09:04:53;;;;;;;0.50;0.37;;;26.60;64.80;;;;;;5093348;28;20467;-74
2022/09/29 09:07:31;;;;;;;0.60;0.60;;;27.50;61.60;;;;;;5093324;28;20420;-74
2022/09/29 09:10:10;;;;;;;0.50;0.30;;;26.80;61.60;;;;;;5093251;28;20450;-74
2022/09/29 09:13:00;;;;;;;0.53;0.43;;;27.60;61.70;;;;;;5092623;28;20426;-73
2022/09/29 09:15:39;;;;;;;0.50;0.30;;;27.70;59.50;;;;;;5092982;28;20538;-74
2022/09/29 09:18:30;;;;;;;0.50;0.40;;;28.50;59.30;;;;;;5093162;28;20435;-74
2022/09/29 09:21:07;;;;;;;1.23;1.07;;;28.60;57.20;;;;;;5092881;28;20801;-74
2022/09/29 09:23:48;;;;;;;0.50;0.40;;;28.70;59.10;;;;;;5092959;28;20534;-75
2022/09/29 09:26:15;;;;;;;0.97;0.60;;;28.50;58.80;;;;;;5093121;28;20823;-74
2022/09/29 09:28:48;;;;;;;0.80;0.60;;;27.70;57.00;;;;;;5093154;28;20870;-73
2022/09/29 09:31:21;;;;;;;0.50;0.40;;;27.80;58.20;;;;;;5092680;28;20448;-74
2022/09/29 09:33:57;;;;;;;1.97;1.33;;;28.50;59.10;;;;;;5092459;28;20429;-74
2022/09/29 09:36:31;;;;;;;0.50;0.30;;;29.30;56.30;;;;;;5092625;28;20455;-74
2022/09/29 09:39:02;;;;;;;0.50;0.30;;;28.80;56.30;;;;;;5092986;28;20426;-74
2022/09/29 09:41:31;;;;;;;0.50;0.30;;;28.90;57.60;;;;;;5092266;28;20814;-74
2022/09/29 09:44:04;;;;;;;0.50;0.30;;;29.40;59.00;;;;;;5092374;28;20463;-74
2022/09/29 09:46:38;;;;;;;0.50;0.30;;;29.90;57.60;;;;;;5092669;28;20507;-74
2022/09/29 09:49:16;;;;;;;0.50;0.30;;;29.80;56.00;;;;;;5092601;28;20661;-75
2022/09/29 09:51:49;;;;;;;0.50;0.30;;;30.00;57.40;;;;;;5092170;28;20453;-75
2022/09/29 09:54:24;;;;;;;0.50;0.30;;;30.30;55.80;;;;;;5092052;28;20788;-74
2022/09/29 09:57:23;;;;;;;0.50;0.40;;;31.00;56.50;;;;;;5092047;28;21034;-74
2022/09/29 10:00:02;;;;;;;0.50;0.30;;;30.20;54.50;;;;;;5092325;28;20419;-74
2022/09/29 10:02:30;;;;;;;0.50;0.30;;;29.90;54.60;;;;;;5092205;28;20500;-74
2022/09/29 10:04:58;;;;;;;0.50;0.30;;;30.20;55.40;;;;;;5091610;28;20475;-74
2022/09/29 10:07:27;;;;;;;0.50;0.30;;;30.00;55.90;;;;;;5092229;28;21010;-73
2022/09/29 10:09:56;;;;;;;0.50;0.40;;;29.50;54.80;;;;;;5091840;28;20439;-74
2022/09/29 10:12:24;;;;;;;0.50;0.40;;;29.40;56.70;;;;;;5091709;28;20441;-74
2022/09/29 10:14:56;;;;;;;0.50;0.40;;;29.90;55.20;;;;;;5091505;28;20467;-74
2022/09/29 10:17:27;;;;;;;0.50;0.30;;;29.90;54.90;;;;;;5092433;28;20840;-74
2022/09/29 10:20:02;;;;;;;0.50;0.30;;;30.60;52.80;;;;;;5091960;28;20552;-74
2022/09/29 10:22:30;;;;;;;0.60;0.40;;;30.10;54.00;;;;;;5092151;28;20442;-75
2022/09/29 10:25:08;;;;;;;1.10;0.63;;;30.60;52.30;;;;;;5091346;28;20525;-74
2022/09/29 10:27:39;;;;;;;0.50;0.30;;;28.80;52.20;;;;;;5091993;28;20450;-74
2022/09/29 10:30:32;;;;;;;0.50;0.30;;;28.30;53.60;;;;;;5091742;28;20439;-74
2022/09/29 10:33:01;;;;;;;0.80;0.80;;;28.20;54.20;;;;;;5091718;28;20420;-74
2022/09/29 10:35:36;;;;;;;11.10;10.50;;;27.50;53.50;;;;;;5091134;28;20453;-74
2022/09/29 10:38:08;;;;;;;0.50;0.30;;;26.30;54.30;;;;;;5091554;28;20934;-74
2022/09/29 10:40:35;;;;;;;0.50;0.30;;;25.50;55.50;;;;;;5091696;28;20793;-75
2022/09/29 10:43:23;;;;;;;0.50;0.40;;;26.60;59.40;;;;;;5092039;28;20534;-73
2022/09/29 10:45:52;;;;;;;0.50;0.37;;;27.70;57.90;;;;;;5091124;28;20894;-74
2022/09/29 10:48:19;;;;;;;0.50;0.40;;;27.30;55.30;;;;;;5091803;28;20443;-74
2022/09/29 10:50:53;;;;;;;0.50;0.30;;;26.50;55.30;;;;;;5091536;28;20538;-74
2022/09/29 10:53:33;;;;;;;0.50;0.30;;;25.20;55.70;;;;;;5091399;28;20842;-74
2022/09/29 10:56:04;;;;;;;0.60;0.33;;;23.70;59.10;;;;;;5091046;28;20533;-74
2022/09/29 10:58:34;;;;;;;0.50;0.40;;;23.80;59.40;;;;;;5091798;28;20419;-74
2022/09/29 11:01:08;;;;;;;0.50;0.40;;;25.00;60.30;;;;;;5091265;28;20451;-73
2022/09/29 11:03:38;;;;;;;0.50;0.30;;;26.20;58.30;;;;;;5091447;28;20439;-74
2022/09/29 11:06:10;;;;;;;0.70;0.57;;;26.80;56.70;;;;;;5091269;28;20494;-75
2022/09/29 11:08:59;;;;;;;0.50;0.30;;;26.50;58.00;;;;;;5091622;28;20792;-74
2022/09/29 11:11:28;;;;;;;0.50;0.30;;;27.50;56.80;;;;;;5091296;28;20431;-75
2022/09/29 11:13:56;;;;;;;0.50;0.30;;;27.70;57.40;;;;;;5091298;28;20531;-74
2022/09/29 11:16:31;;;;;;;0.50;0.30;;;27.20;53.90;;;;;;5091141;28;20505;-74
2022/09/29 11:19:03;;;;;;;0.50;0.40;;;26.30;55.70;;;;;;5091510;28;20439;-74
2022/09/29 11:22:03;;;;;;;0.50;0.30;;;25.10;55.90;;;;;;5091597;28;20506;-74
2022/09/29 11:24:53;;;;;;;0.70;0.70;;;24.40;59.70;;;;;;5057228;28;20474;-74
2022/09/29 11:27:33;;;;;;;0.73;0.73;;;23.80;58.30;;;;;;5087529;28;20461;-74
2022/09/29 11:30:06;;;;;;;0.50;0.30;;;23.00;60.10;;;;;;5091029;28;20438;-74
2022/09/29 11:32:49;;;;;;;0.50;0.40;;;21.90;60.40;;;;;;5091267;28;20427;-74
2022/09/29 11:35:32;;;;;;;0.50;0.40;;;21.50;63.80;;;;;;5090471;28;20477;-73
2022/09/29 11:38:40;;;;;;;0.50;0.33;;;21.70;63.70;;;;;;5090680;28;20446;-74
2022/09/29 11:41:25;;;;;;;0.50;0.30;;;21.30;62.00;;;;;;5091369;28;20415;-74
2022/09/29 11:43:56;;;;;;;0.50;0.40;;;21.00;67.40;;;;;;5090711;28;20552;-74
2022/09/29 11:46:43;;;;;;;0.50;0.30;;;20.40;63.20;;;;;;5094774;28;20486;-74
2022/09/29 11:49:36;;;;;;;0.50;0.30;;;21.10;67.60;;;;;;5094920;28;20439;-75
2022/09/29 11:52:17;;;;;;;0.50;0.40;;;22.30;60.60;;;;;;5094966;28;20428;-75
2022/09/29 11:55:03;;;;;;;0.50;0.37;;;22.90;61.80;;;;;;5094636;28;20412;-74
2022/09/29 11:57:47;;;;;;;0.50;0.30;;;22.70;63.10;;;;;;5094349;28;20526;-75
2022/09/29 12:00:15;;;;;;;0.50;0.40;;;22.40;65.00;;;;;;5095291;28;20442;-74
2022/09/29 12:03:10;;;;;;;0.60;0.50;;;22.10;64.70;;;;;;5094607;28;20439;-74
2022/09/29 12:05:50;;;;;;;0.50;0.30;;;21.50;65.00;;;;;;5095118;28;20481;-75
2022/09/29 12:08:31;;;;;;;0.50;0.30;;;20.70;69.80;;;;;;5094717;28;20443;-74
2022/09/29 12:11:04;;;;;;;0.50;0.30;;;20.50;70.40;;;;;;5094069;28;20534;-74
2022/09/29 12:13:40;;;;;;;0.50;0.30;;;20.30;67.00;;;;;;5094501;28;20808;-74
2022/09/29 12:16:11;;;;;;;0.50;0.40;;;19.80;64.50;;;;;;5094599;28;20454;-74
2022/09/29 12:18:41;;;;;;;0.50;0.37;;;18.90;67.00;;;;;;5094288;28;21006;-74
2022/09/29 12:21:10;;;;;;;0.60;0.50;;;20.10;71.50;;;;;;5094338;28;20514;-74
2022/09/29 12:23:40;;;;;;;0.50;0.40;;;20.90;64.30;;;;;;5094025;28;20796;-74
2022/09/29 12:26:10;;;;;;;0.50;0.40;;;20.90;65.60;;;;;;5094115;28;20475;-74
2022/09/29 12:28:44;;;;;;;0.50;0.40;;;20.80;65.60;;;;;;5093917;28;20431;-74
2022/09/29 12:31:14;;;;;;;0.50;0.30;;;20.20;64.60;;;;;;5094191;28;20443;-74
2022/09/29 12:33:46;;;;;;;0.50;0.33;;;20.10;70.30;;;;;;5093920;28;20443;-74
2022/09/29 12:36:44;;;;;;;0.50;0.30;;;20.90;72.60;;;;;;5094001;28;20451;-74
2022/09/29 12:39:24;;;;;;;0.50;0.30;;;22.30;69.70;;;;;;5048555;28;20447;-75
2022/09/29 12:41:56;;;;;;;0.70;0.50;;;22.50;66.40;;;;;;5093602;28;20423;-74
2022/09/29 12:44:30;;;;;;;0.60;0.50;;;23.20;65.70;;;;;;5093834;28;20804;-74
2022/09/29 12:47:03;;;;;;;0.50;0.40;;;24.00;61.40;;;;;;5093801;28;20470;-74
2022/09/29 12:49:36;;;;;;;0.50;0.30;;;24.40;60.10;;;;;;5093283;28;20789;-75
2022/09/29 12:52:09;;;;;;;0.50;0.30;;;25.40;60.70;;;;;;5094092;28;20783;-74
2022/09/29 12:54:41;;;;;;;0.70;0.70;;;26.20;56.30;;;;;;5092927;28;20434;-74
2022/09/29 12:57:14;;;;;;;0.50;0.30;;;26.10;57.30;;;;;;5092611;28;20455;-74
2022/09/29 12:59:46;;;;;;;0.50;0.30;;;26.90;56.80;;;;;;5092950;28;20919;-75
2022/09/29 13:02:31;;;;;;;1.57;0.80;;;27.60;56.20;;;;;;5093689;28;20490;-74
2022/09/29 13:05:25;;;;;;;0.50;0.40;;;27.30;52.80;;;;;;5092875;28;20465;-74
2022/09/29 13:08:16;;;;;;;0.60;0.60;;;26.90;54.90;;;;;;5093656;28;20522;-74
2022/09/29 13:10:58;;;;;;;0.50;0.30;;;27.00;55.60;;;;;;5089796;28;20542;-75
2022/09/29 13:13:54;;;;;;;0.50;0.30;;;26.50;55.60;;;;;;5093360;28;20447;-74
2022/09/29 13:16:37;;;;;;;0.50;0.30;;;26.90;54.20;;;;;;5093292;28;20530;-75
2022/09/29 13:19:35;;;;;;;0.50;0.30;;;27.10;54.20;;;;;;5093039;28;20443;-75